Time;durP1;ratioP1;P1;durP2;ratioP2;P2;SDS_P1;SDS_P2;PMS_P1;PMS_P2;Temp;Humidity;BMP_temperature;BMP_pressure;BME280_temperature;BME280_humidity;BME280_pressure;Samples;Min_cycle;Max_cycle;Signal;HPM_P1;HPM_P2
2023/07/05 00:00:57;;;;;;;27.92;11.70;;;24.80;95.10;;;;;;5051094;28;20524;-78
2023/07/05 00:04:01;;;;;;;27.42;11.40;;;24.70;95.50;;;;;;5050266;28;20040;-78
2023/07/05 00:07:05;;;;;;;21.65;11.60;;;24.60;95.30;;;;;;5050879;28;20405;-79
2023/07/05 00:10:10;;;;;;;24.55;11.45;;;24.60;95.40;;;;;;5054891;28;20036;-78
2023/07/05 00:13:13;;;;;;;22.42;10.88;;;24.60;95.30;;;;;;5054024;28;20095;-78
2023/07/05 00:16:18;;;;;;;23.90;11.57;;;24.50;95.60;;;;;;5054711;28;20049;-78
2023/07/05 00:19:22;;;;;;;20.73;10.32;;;24.50;95.30;;;;;;5054257;28;20056;-78
2023/07/05 00:22:27;;;;;;;27.08;10.02;;;24.30;95.60;;;;;;5054525;28;20044;-78
2023/07/05 00:25:31;;;;;;;20.17;9.70;;;24.30;95.60;;;;;;5054404;28;20048;-78
2023/07/05 00:28:35;;;;;;;21.55;9.90;;;24.30;95.50;;;;;;5054436;28;20051;-78
2023/07/05 00:31:39;;;;;;;18.55;9.75;;;24.30;95.70;;;;;;5054328;28;20040;-78
2023/07/05 00:34:43;;;;;;;17.85;9.73;;;24.30;95.50;;;;;;5054359;28;20131;-78
2023/07/05 00:37:48;;;;;;;20.85;9.90;;;24.30;95.30;;;;;;5054314;28;20043;-78
2023/07/05 00:40:52;;;;;;;25.48;9.52;;;24.30;95.40;;;;;;5042012;28;20044;-78
2023/07/05 00:43:56;;;;;;;16.08;8.98;;;24.30;95.60;;;;;;5054289;28;20048;-78
2023/07/05 00:47:12;;;;;;;20.02;9.05;;;24.30;95.50;;;;;;5053375;28;20060;-78
2023/07/05 00:50:25;;;;;;;21.85;9.38;;;24.40;95.30;;;;;;5041889;28;20051;-78
2023/07/05 00:53:30;;;;;;;19.17;9.27;;;24.50;95.10;;;;;;5054238;28;20056;-78
2023/07/05 00:56:49;;;;;;;21.58;9.30;;;24.40;95.30;;;;;;5053395;28;20044;-78
2023/07/05 00:59:53;;;;;;;20.55;9.35;;;24.50;95.20;;;;;;5053276;28;20067;-78
2023/07/05 01:03:00;;;;;;;19.63;9.20;;;24.40;95.20;;;;;;5053743;28;20044;-79
2023/07/05 01:06:06;;;;;;;20.40;9.95;;;24.40;95.20;;;;;;5052824;28;20044;-77
2023/07/05 01:09:10;;;;;;;17.42;9.27;;;24.30;95.30;;;;;;5053736;28;20627;-77
2023/07/05 01:12:22;;;;;;;17.08;9.82;;;24.30;95.50;;;;;;5052791;28;20409;-77
2023/07/05 01:15:35;;;;;;;20.65;10.40;;;24.20;95.60;;;;;;5053580;28;20044;-76
2023/07/05 01:18:50;;;;;;;22.55;11.10;;;24.20;95.60;;;;;;5052243;28;20056;-79
2023/07/05 01:22:04;;;;;;;21.40;10.82;;;24.10;95.90;;;;;;5053472;28;20496;-78
2023/07/05 01:25:29;;;;;;;23.83;10.20;;;24.10;96.00;;;;;;5052736;28;20048;-78
2023/07/05 01:28:51;;;;;;;20.63;10.07;;;24.10;96.10;;;;;;5053584;28;20052;-79
2023/07/05 01:31:58;;;;;;;21.48;10.20;;;24.10;96.10;;;;;;5052790;28;20048;-78
2023/07/05 01:35:08;;;;;;;23.98;11.02;;;24.10;96.10;;;;;;5052537;28;20063;-78
2023/07/05 01:38:13;;;;;;;19.23;10.75;;;24.10;95.90;;;;;;5053230;28;20048;-78
2023/07/05 01:41:18;;;;;;;19.77;10.32;;;24.20;95.80;;;;;;5052442;28;20052;-79
2023/07/05 01:44:22;;;;;;;17.08;9.60;;;24.20;95.90;;;;;;5053173;28;20504;-78
2023/07/05 01:48:20;;;;;;;17.55;9.70;;;24.20;95.90;;;;;;5052140;28;20056;-79
2023/07/05 01:51:43;;;;;;;19.65;9.82;;;24.20;95.80;;;;;;5051327;28;20047;-78
2023/07/05 01:55:08;;;;;;;21.08;10.35;;;24.10;96.00;;;;;;5053157;28;20047;-76
2023/07/05 01:58:18;;;;;;;20.10;9.95;;;24.00;96.10;;;;;;5053015;28;20052;-76
2023/07/05 02:01:23;;;;;;;17.88;10.20;;;24.10;96.00;;;;;;5051969;28;20107;-79
2023/07/05 02:04:29;;;;;;;24.20;10.63;;;24.00;96.40;;;;;;5052926;28;20044;-78
2023/07/05 02:07:33;;;;;;;19.42;9.90;;;24.00;96.10;;;;;;5052591;28;20056;-78
2023/07/05 02:10:37;;;;;;;20.17;10.20;;;23.90;96.20;;;;;;5051692;28;20059;-78
2023/07/05 02:13:42;;;;;;;19.27;10.60;;;23.90;96.40;;;;;;5051968;28;20044;-78
2023/07/05 02:16:46;;;;;;;20.08;10.13;;;23.90;96.10;;;;;;5052684;28;20048;-77
2023/07/05 02:19:50;;;;;;;22.95;10.98;;;23.90;96.20;;;;;;5051497;28;20116;-77
2023/07/05 02:22:55;;;;;;;25.10;11.23;;;24.00;96.00;;;;;;5052345;28;20052;-77
2023/07/05 02:26:04;;;;;;;19.90;10.10;;;23.90;96.10;;;;;;5051637;28;20191;-77
2023/07/05 02:29:08;;;;;;;18.75;10.05;;;23.80;96.30;;;;;;5052150;28;20060;-78
2023/07/05 02:32:12;;;;;;;21.20;10.63;;;23.70;96.40;;;;;;5051823;28;20060;-77
2023/07/05 02:35:16;;;;;;;22.73;10.90;;;23.70;96.60;;;;;;5052180;28;20146;-77
2023/07/05 02:38:19;;;;;;;21.45;10.35;;;23.70;96.70;;;;;;5051426;28;20036;-77
2023/07/05 02:41:24;;;;;;;27.60;11.48;;;23.70;96.50;;;;;;5040148;28;20047;-77
2023/07/05 02:44:28;;;;;;;24.92;10.80;;;23.60;96.60;;;;;;5052019;28;20405;-77
2023/07/05 02:47:32;;;;;;;23.02;11.27;;;23.70;96.70;;;;;;5051100;28;20547;-77
2023/07/05 02:50:38;;;;;;;26.80;11.27;;;23.70;96.60;;;;;;5051858;28;20040;-79
2023/07/05 02:53:42;;;;;;;20.52;10.13;;;23.70;96.50;;;;;;5051203;28;20048;-77
2023/07/05 02:56:46;;;;;;;20.77;10.43;;;23.70;96.50;;;;;;5050720;28;20047;-77
2023/07/05 02:59:50;;;;;;;16.95;10.75;;;23.70;96.50;;;;;;5050510;28;20044;-77
2023/07/05 03:02:55;;;;;;;18.30;10.32;;;23.70;96.30;;;;;;5050909;28;20063;-78
2023/07/05 03:06:00;;;;;;;26.20;12.13;;;23.70;96.50;;;;;;5051376;28;20048;-78
2023/07/05 03:09:07;;;;;;;17.70;10.35;;;23.60;96.40;;;;;;5051076;28;20052;-78
2023/07/05 03:12:11;;;;;;;17.63;9.95;;;23.60;96.60;;;;;;5051752;28;20098;-78
2023/07/05 03:15:15;;;;;;;16.80;9.75;;;23.60;96.40;;;;;;5051307;28;20044;-78
2023/07/05 03:18:19;;;;;;;17.73;9.82;;;23.60;96.70;;;;;;5038849;28;20044;-78
2023/07/05 03:21:23;;;;;;;16.00;9.82;;;23.60;96.40;;;;;;5050822;28;20511;-78
2023/07/05 03:24:26;;;;;;;17.08;9.75;;;23.50;96.50;;;;;;5051544;28;20120;-78
2023/07/05 03:27:30;;;;;;;17.45;8.95;;;23.50;96.40;;;;;;5038882;28;20519;-78
2023/07/05 03:30:35;;;;;;;22.20;10.05;;;23.50;96.30;;;;;;5050391;28;20393;-79
2023/07/05 03:33:39;;;;;;;19.45;9.20;;;23.50;96.30;;;;;;5050598;28;20064;-76
2023/07/05 03:36:43;;;;;;;19.77;9.55;;;23.50;96.50;;;;;;5051389;28;20043;-77
2023/07/05 03:39:52;;;;;;;19.55;9.57;;;23.50;96.40;;;;;;5039060;28;20044;-79
2023/07/05 03:42:56;;;;;;;16.92;9.27;;;23.50;96.50;;;;;;5049959;28;20393;-78
2023/07/05 03:46:01;;;;;;;17.25;9.20;;;23.50;96.50;;;;;;5050966;28;20056;-81
2023/07/05 03:49:05;;;;;;;18.45;9.75;;;23.50;96.50;;;;;;5050790;28;20051;-77
2023/07/05 03:52:09;;;;;;;15.90;9.68;;;23.50;96.50;;;;;;5050838;28;20044;-76
2023/07/05 03:55:13;;;;;;;18.73;9.77;;;23.50;96.60;;;;;;5050702;28;20043;-77
2023/07/05 03:58:17;;;;;;;26.55;10.38;;;23.50;96.60;;;;;;5050719;28;20044;-79
2023/07/05 04:01:26;;;;;;;19.95;9.60;;;23.50;96.60;;;;;;5049980;28;20039;-78
2023/07/05 04:04:29;;;;;;;16.70;9.75;;;23.50;96.50;;;;;;5050864;28;20048;-77
2023/07/05 04:07:34;;;;;;;15.68;9.45;;;23.60;96.40;;;;;;5050691;28;20051;-77
2023/07/05 04:10:37;;;;;;;19.65;10.63;;;23.50;96.20;;;;;;5050778;28;20389;-79
2023/07/05 04:13:43;;;;;;;16.63;9.88;;;23.50;96.50;;;;;;5050806;28;20048;-78
2023/07/05 04:16:47;;;;;;;21.58;9.90;;;23.60;96.40;;;;;;5050963;28;20047;-79
2023/07/05 04:19:51;;;;;;;20.92;9.77;;;23.60;96.20;;;;;;5049732;28;20540;-78
2023/07/05 04:22:59;;;;;;;19.08;9.75;;;23.60;96.30;;;;;;5050910;28;20056;-78
2023/07/05 04:26:05;;;;;;;21.23;10.52;;;23.60;96.40;;;;;;5049582;28;20048;-78
2023/07/05 04:29:09;;;;;;;19.83;9.75;;;23.60;96.30;;;;;;5050561;28;20064;-76
2023/07/05 04:32:13;;;;;;;21.50;9.35;;;23.80;96.20;;;;;;5050335;28;20056;-78
2023/07/05 04:35:18;;;;;;;22.23;9.77;;;23.90;96.10;;;;;;5050490;28;20052;-78
2023/07/05 04:38:23;;;;;;;22.60;10.05;;;24.00;96.10;;;;;;5049393;28;20121;-79
2023/07/05 04:41:27;;;;;;;20.48;10.13;;;24.00;96.20;;;;;;5050765;28;20385;-77
2023/07/05 04:44:31;;;;;;;20.17;9.63;;;24.30;96.00;;;;;;5050465;28;20621;-77
2023/07/05 04:47:35;;;;;;;20.38;9.10;;;24.70;95.30;;;;;;5050354;28;20044;-76
2023/07/05 04:50:39;;;;;;;18.58;9.10;;;25.00;94.70;;;;;;5050510;28;20052;-77
2023/07/05 04:53:43;;;;;;;24.85;10.15;;;25.10;94.30;;;;;;5051081;28;20052;-77
2023/07/05 04:56:47;;;;;;;20.50;10.27;;;25.20;94.20;;;;;;5054277;28;20044;-77
2023/07/05 04:59:51;;;;;;;18.05;9.75;;;25.00;94.70;;;;;;5053848;28;20080;-78
2023/07/05 05:02:55;;;;;;;21.85;9.85;;;24.90;94.80;;;;;;5054207;28;20034;-78
2023/07/05 05:06:00;;;;;;;27.15;10.65;;;24.70;94.80;;;;;;5054279;28;20048;-78
2023/07/05 05:09:04;;;;;;;24.05;10.77;;;24.60;95.00;;;;;;5053105;28;20048;-78
2023/07/05 05:12:09;;;;;;;29.17;10.20;;;24.70;95.30;;;;;;5053213;28;20040;-78
2023/07/05 05:15:13;;;;;;;44.63;11.00;;;24.90;95.60;;;;;;5054199;28;20130;-79
2023/07/05 05:18:17;;;;;;;36.63;10.60;;;25.30;94.70;;;;;;5053944;28;20062;-76
2023/07/05 05:21:21;;;;;;;28.33;10.13;;;25.60;94.30;;;;;;5053630;28;20695;-77
2023/07/05 05:24:25;;;;;;;22.77;10.60;;;25.90;93.90;;;;;;5052749;28;20048;-68
2023/07/05 05:27:29;;;;;;;31.40;9.93;;;26.10;93.50;;;;;;5053230;28;20503;-71
2023/07/05 05:30:34;;;;;;;21.40;9.50;;;26.30;93.50;;;;;;5053528;28;20052;-70
2023/07/05 05:33:39;;;;;;;21.67;10.57;;;26.50;92.90;;;;;;5053138;28;20056;-70
2023/07/05 05:36:43;;;;;;;23.88;9.20;;;26.60;92.60;;;;;;5053052;28;20044;-69
2023/07/05 05:39:46;;;;;;;22.85;9.82;;;26.90;92.50;;;;;;5053440;28;20415;-69
2023/07/05 05:42:50;;;;;;;23.95;9.95;;;27.00;92.10;;;;;;5053337;28;20048;-70
2023/07/05 05:45:54;;;;;;;30.08;9.65;;;27.10;92.00;;;;;;5053258;28;20064;-71
2023/07/05 05:48:58;;;;;;;22.52;9.80;;;27.20;91.90;;;;;;5052907;28;20520;-70
2023/07/05 05:52:02;;;;;;;23.25;10.32;;;27.20;91.80;;;;;;5052863;28;20044;-70
2023/07/05 05:55:06;;;;;;;25.52;10.38;;;27.20;91.70;;;;;;5052853;28;20075;-70
2023/07/05 05:58:11;;;;;;;18.70;8.63;;;27.30;91.80;;;;;;5053166;28;20063;-71
2023/07/05 06:01:15;;;;;;;19.60;8.75;;;27.50;91.60;;;;;;5052828;28;20048;-69
2023/07/05 06:04:19;;;;;;;20.15;8.43;;;27.80;91.20;;;;;;5052720;28;20048;-71
2023/07/05 06:07:26;;;;;;;23.65;8.70;;;28.10;90.70;;;;;;5051940;28;20055;-70
2023/07/05 06:10:31;;;;;;;17.63;8.30;;;28.10;90.40;;;;;;5052866;28;20048;-70
2023/07/05 06:13:35;;;;;;;16.95;8.25;;;28.20;90.20;;;;;;5052557;28;20040;-70
2023/07/05 06:16:40;;;;;;;21.55;8.10;;;28.20;90.40;;;;;;5051252;28;20044;-71
2023/07/05 06:19:44;;;;;;;32.58;9.55;;;28.40;90.00;;;;;;5050615;28;20516;-70
2023/07/05 06:22:48;;;;;;;26.00;8.15;;;28.50;88.50;;;;;;5051384;28;20048;-69
2023/07/05 06:25:52;;;;;;;19.85;8.85;;;28.60;89.20;;;;;;5052197;28;20570;-70
2023/07/05 06:28:56;;;;;;;30.35;8.85;;;28.80;88.90;;;;;;5051622;28;20527;-70
2023/07/05 06:32:00;;;;;;;39.65;10.50;;;29.00;89.00;;;;;;5051797;28;20064;-69
2023/07/05 06:35:04;;;;;;;28.02;8.98;;;29.00;87.60;;;;;;5051951;28;20040;-71
2023/07/05 06:38:08;;;;;;;21.35;7.95;;;28.90;88.60;;;;;;5051907;28;20048;-67
2023/07/05 06:41:12;;;;;;;17.98;8.20;;;29.00;88.90;;;;;;5051783;28;20044;-69
2023/07/05 06:44:16;;;;;;;24.13;8.90;;;29.30;88.00;;;;;;5051630;28;20040;-68
2023/07/05 06:47:20;;;;;;;21.67;8.63;;;29.40;87.80;;;;;;5051620;28;20397;-68
2023/07/05 06:50:24;;;;;;;30.15;9.32;;;29.40;87.70;;;;;;5051310;28;20048;-68
2023/07/05 06:53:29;;;;;;;49.65;10.77;;;29.40;88.40;;;;;;5051761;28;20276;-70
2023/07/05 06:56:35;;;;;;;47.17;10.60;;;29.70;88.40;;;;;;5051586;28;20036;-67
2023/07/05 06:59:43;;;;;;;18.42;8.05;;;30.10;87.50;;;;;;5051640;28;20040;-68
2023/07/05 07:02:47;;;;;;;24.63;10.25;;;30.40;86.60;;;;;;5051794;28;20044;-68
2023/07/05 07:05:53;;;;;;;18.85;8.68;;;30.70;86.10;;;;;;5051757;28;20036;-67
2023/07/05 07:08:58;;;;;;;27.67;9.48;;;30.70;85.10;;;;;;5051402;28;20060;-69
2023/07/05 07:12:02;;;;;;;15.57;8.50;;;30.80;84.90;;;;;;5051669;28;20380;-68
2023/07/05 07:15:06;;;;;;;23.77;8.68;;;30.90;84.70;;;;;;5051587;28;20385;-70
2023/07/05 07:18:10;;;;;;;22.33;9.00;;;30.80;85.20;;;;;;5051332;28;20052;-71
2023/07/05 07:21:16;;;;;;;36.45;10.32;;;31.10;84.50;;;;;;5051408;28;20056;-70
2023/07/05 07:24:20;;;;;;;29.65;9.98;;;31.30;85.00;;;;;;5051427;28;20068;-69
2023/07/05 07:27:25;;;;;;;23.17;8.73;;;31.60;83.50;;;;;;5049573;28;20507;-71
2023/07/05 07:30:29;;;;;;;19.33;9.50;;;31.70;82.80;;;;;;5050968;28;20040;-71
2023/07/05 07:33:33;;;;;;;23.58;10.35;;;31.70;82.80;;;;;;5051117;28;20424;-71
2023/07/05 07:36:37;;;;;;;29.80;11.68;;;31.50;82.60;;;;;;5050963;28;20044;-71
2023/07/05 07:39:42;;;;;;;18.75;9.98;;;31.50;82.80;;;;;;5051032;28;20401;-73
2023/07/05 07:42:45;;;;;;;29.17;9.32;;;31.30;83.00;;;;;;5051220;28;20056;-71
2023/07/05 07:45:49;;;;;;;26.00;9.02;;;31.50;84.00;;;;;;5050597;28;20055;-84
2023/07/05 07:48:56;;;;;;;25.90;9.20;;;31.70;82.70;;;;;;5050573;28;20052;-69
2023/07/05 07:52:00;;;;;;;18.95;9.60;;;32.00;81.90;;;;;;5050679;28;20052;-70
2023/07/05 07:55:04;;;;;;;20.75;8.88;;;32.20;81.50;;;;;;5050892;28;20048;-76
2023/07/05 07:58:08;;;;;;;22.33;9.93;;;32.20;81.60;;;;;;5050812;28;20059;-74
2023/07/05 08:01:25;;;;;;;21.98;9.73;;;32.20;81.10;;;;;;5050549;28;20500;-72
2023/07/05 08:04:29;;;;;;;27.13;10.38;;;31.90;81.50;;;;;;5050914;28;20052;-72
2023/07/05 08:07:33;;;;;;;26.42;9.55;;;31.40;82.20;;;;;;5050354;28;20064;-68
2023/07/05 08:10:37;;;;;;;25.88;10.57;;;31.40;83.10;;;;;;5050463;28;20051;-69
2023/07/05 08:13:41;;;;;;;22.75;10.50;;;31.30;82.80;;;;;;5049218;28;20044;-70
2023/07/05 08:16:45;;;;;;;25.70;10.35;;;31.10;83.30;;;;;;5048214;28;20048;-69
2023/07/05 08:19:49;;;;;;;22.25;10.07;;;30.90;83.50;;;;;;5049025;28;20063;-68
2023/07/05 08:22:53;;;;;;;23.65;11.07;;;30.60;83.40;;;;;;5049323;28;20665;-69
2023/07/05 08:25:57;;;;;;;26.48;11.13;;;30.80;83.30;;;;;;5049950;28;20044;-69
2023/07/05 08:29:03;;;;;;;21.73;10.50;;;31.10;82.60;;;;;;5050923;28;20059;-71
2023/07/05 08:32:07;;;;;;;25.95;10.73;;;31.30;81.80;;;;;;5053345;28;20444;-70
2023/07/05 08:35:11;;;;;;;19.83;10.57;;;31.50;81.60;;;;;;5053480;28;20052;-69
2023/07/05 08:38:18;;;;;;;31.13;11.13;;;31.70;81.20;;;;;;5054141;28;20044;-68
2023/07/05 08:41:37;;;;;;;22.80;9.40;;;31.70;81.80;;;;;;5053837;28;20044;-69
2023/07/05 08:45:11;;;;;;;22.60;8.77;;;31.90;81.00;;;;;;5054115;28;20036;-70
2023/07/05 08:48:16;;;;;;;17.73;8.85;;;32.20;79.60;;;;;;5053997;28;20052;-70
2023/07/05 08:51:20;;;;;;;21.60;8.13;;;32.50;77.60;;;;;;5054026;28;20043;-70
2023/07/05 08:54:31;;;;;;;19.30;9.48;;;32.50;78.00;;;;;;5053811;28;20044;-68
2023/07/05 08:57:56;;;;;;;19.98;8.77;;;32.40;78.60;;;;;;5053687;28;20104;-70
2023/07/05 09:01:03;;;;;;;17.83;8.60;;;32.30;79.20;;;;;;5052820;28;20116;-70
2023/07/05 09:04:21;;;;;;;18.65;8.45;;;32.50;79.70;;;;;;5053694;28;20044;-71
2023/07/05 09:07:46;;;;;;;17.42;7.32;;;32.50;77.60;;;;;;5052599;28;20103;-73
2023/07/05 09:10:54;;;;;;;12.75;7.25;;;32.40;78.00;;;;;;5053883;28;20071;-71
2023/07/05 09:14:27;;;;;;;18.75;8.55;;;32.40;78.30;;;;;;5053580;28;20048;-67
2023/07/05 09:17:48;;;;;;;30.75;10.00;;;32.70;78.20;;;;;;5053104;28;20048;-70
2023/07/05 09:21:05;;;;;;;18.42;9.27;;;32.70;77.70;;;;;;5053501;28;20416;-70
2023/07/05 09:24:24;;;;;;;15.30;7.90;;;32.00;78.00;;;;;;5053042;28;20629;-69
2023/07/05 09:27:35;;;;;;;19.35;8.77;;;31.40;79.70;;;;;;5052040;28;20052;-69
2023/07/05 09:30:40;;;;;;;18.63;9.10;;;31.20;80.40;;;;;;5053209;28;20060;-69
2023/07/05 09:33:49;;;;;;;20.23;8.75;;;31.20;80.70;;;;;;5053032;28;20040;-69
2023/07/05 09:36:53;;;;;;;13.60;6.65;;;31.60;80.70;;;;;;5053156;28;20436;-70
2023/07/05 09:40:15;;;;;;;14.80;7.50;;;31.80;79.50;;;;;;5053191;28;20048;-69
2023/07/05 09:43:29;;;;;;;17.50;7.80;;;32.10;78.00;;;;;;5053215;28;20499;-68
2023/07/05 09:46:36;;;;;;;22.80;7.40;;;32.30;77.40;;;;;;5053298;28;20120;-68
2023/07/05 09:49:41;;;;;;;16.70;8.00;;;32.20;77.40;;;;;;5053270;28;20052;-70
2023/07/05 09:52:57;;;;;;;23.42;9.10;;;31.90;79.00;;;;;;5051694;28;20498;-69
2023/07/05 09:56:06;;;;;;;17.48;7.82;;;32.00;79.90;;;;;;5051036;28;20108;-70
2023/07/05 09:59:21;;;;;;;14.80;7.70;;;32.30;78.60;;;;;;5050919;28;20043;-68
2023/07/05 10:02:29;;;;;;;21.98;9.48;;;32.40;78.30;;;;;;5051158;28;20072;-68
2023/07/05 10:05:33;;;;;;;16.42;8.70;;;32.30;78.80;;;;;;5051337;28;20040;-69
2023/07/05 10:08:45;;;;;;;24.35;10.25;;;32.00;79.70;;;;;;5051546;28;20507;-69
2023/07/05 10:11:59;;;;;;;14.50;8.48;;;31.90;80.70;;;;;;5052283;28;20040;-70
2023/07/05 10:15:21;;;;;;;15.25;8.60;;;31.70;81.10;;;;;;5051601;28;20408;-68
2023/07/05 10:18:32;;;;;;;23.60;9.68;;;31.60;81.70;;;;;;5052323;28;20051;-69
2023/07/05 10:21:36;;;;;;;18.65;8.70;;;31.70;81.90;;;;;;5051897;28;20056;-70
2023/07/05 10:24:46;;;;;;;24.02;10.20;;;31.90;82.20;;;;;;5051486;28;20044;-67
2023/07/05 10:27:50;;;;;;;17.75;10.00;;;32.00;82.40;;;;;;5051862;28;20059;-69
2023/07/05 10:30:57;;;;;;;28.15;10.98;;;32.20;82.30;;;;;;5052103;28;20036;-68
2023/07/05 10:34:15;;;;;;;16.75;9.18;;;32.20;82.00;;;;;;5051244;28;20056;-67
2023/07/05 10:37:35;;;;;;;28.63;9.52;;;32.20;81.70;;;;;;5051794;28;20098;-70
2023/07/05 10:40:39;;;;;;;36.95;10.45;;;32.30;82.20;;;;;;5050863;28;20409;-68
2023/07/05 10:43:57;;;;;;;21.98;9.60;;;32.30;82.40;;;;;;5051854;28;20103;-69
2023/07/05 10:47:03;;;;;;;26.42;10.63;;;32.30;82.30;;;;;;5051544;28;20059;-70
2023/07/05 10:50:09;;;;;;;17.27;8.88;;;32.20;82.10;;;;;;5051066;28;20056;-70
2023/07/05 10:53:15;;;;;;;20.20;8.60;;;32.20;82.40;;;;;;5051257;28;20064;-68
2023/07/05 10:56:24;;;;;;;14.85;8.85;;;32.20;82.00;;;;;;5051640;28;20048;-70
2023/07/05 10:59:39;;;;;;;13.55;8.32;;;32.10;82.20;;;;;;5051234;28;20040;-71
2023/07/05 11:02:55;;;;;;;18.45;8.68;;;32.00;82.00;;;;;;5051559;28;20052;-69
2023/07/05 11:06:03;;;;;;;16.63;8.85;;;32.00;82.40;;;;;;5051361;28;20040;-69
2023/07/05 11:09:10;;;;;;;20.63;9.00;;;32.00;82.40;;;;;;5051045;28;20055;-68
2023/07/05 11:12:23;;;;;;;14.15;8.00;;;31.90;82.10;;;;;;5051533;28;20052;-68
2023/07/05 11:15:27;;;;;;;14.85;7.78;;;31.90;82.00;;;;;;5050055;28;20515;-72
2023/07/05 11:18:33;;;;;;;14.68;7.35;;;31.90;81.40;;;;;;5049303;28;20040;-68
2023/07/05 11:21:43;;;;;;;12.77;7.25;;;31.90;82.30;;;;;;5050225;28;20056;-69
2023/07/05 11:24:47;;;;;;;14.02;7.47;;;31.90;81.70;;;;;;5050560;28;20044;-68
2023/07/05 11:27:56;;;;;;;13.85;7.88;;;31.90;82.00;;;;;;5050413;28;20052;-67
2023/07/05 11:31:02;;;;;;;19.80;7.72;;;31.90;81.80;;;;;;5050860;28;20059;-68
2023/07/05 11:34:24;;;;;;;15.35;7.72;;;31.90;81.50;;;;;;5049720;28;20047;-68
2023/07/05 11:37:28;;;;;;;19.30;7.47;;;31.90;81.10;;;;;;5051143;28;20048;-69
2023/07/05 11:41:00;;;;;;;15.85;7.47;;;31.90;81.20;;;;;;5050723;28;20040;-68
2023/07/05 11:44:23;;;;;;;14.07;7.22;;;31.90;81.80;;;;;;5051036;28;20389;-69
2023/07/05 11:47:33;;;;;;;12.93;6.40;;;31.90;80.90;;;;;;5050598;28;20040;-69
2023/07/05 11:50:37;;;;;;;15.32;6.93;;;31.90;80.40;;;;;;5049628;28;20389;-69
2023/07/05 11:53:43;;;;;;;24.00;6.55;;;31.90;80.90;;;;;;5049949;28;20040;-71
2023/07/05 11:56:51;;;;;;;13.50;6.45;;;31.80;80.30;;;;;;5050833;28;20052;-69
2023/07/05 12:00:02;;;;;;;13.15;6.75;;;31.70;80.60;;;;;;5050820;28;20052;-68
2023/07/05 12:03:25;;;;;;;15.75;6.57;;;31.60;80.60;;;;;;5050679;28;20393;-69
2023/07/05 12:06:39;;;;;;;9.30;5.75;;;31.70;79.50;;;;;;5054915;28;20052;-69
2023/07/05 12:09:44;;;;;;;10.60;5.65;;;31.70;79.40;;;;;;5054758;28;20060;-69
2023/07/05 12:12:48;;;;;;;15.05;6.28;;;31.70;79.10;;;;;;5054908;28;20409;-69
2023/07/05 12:15:55;;;;;;;14.55;6.10;;;31.70;78.60;;;;;;5054826;28;20051;-68
2023/07/05 12:19:00;;;;;;;10.20;5.45;;;31.70;78.50;;;;;;5054387;28;20052;-69
2023/07/05 12:22:25;;;;;;;12.27;6.60;;;31.70;78.10;;;;;;5054898;28;20064;-69
2023/07/05 12:25:29;;;;;;;19.20;6.25;;;31.70;77.80;;;;;;5054085;28;20048;-69
2023/07/05 12:28:35;;;;;;;9.18;5.57;;;31.60;78.40;;;;;;5053595;28;20171;-70
2023/07/05 12:31:42;;;;;;;12.13;6.55;;;31.60;78.50;;;;;;5052968;28;20036;-69
2023/07/05 12:35:00;;;;;;;15.38;6.30;;;31.60;77.70;;;;;;5054160;28;20052;-69
2023/07/05 12:38:17;;;;;;;14.85;6.38;;;31.50;77.80;;;;;;5054227;28;20047;-71
2023/07/05 12:41:24;;;;;;;15.30;6.68;;;31.50;78.50;;;;;;5054253;28;20068;-69
2023/07/05 12:44:30;;;;;;;17.08;6.32;;;31.50;78.90;;;;;;5053970;28;20059;-68
2023/07/05 12:47:35;;;;;;;18.65;6.32;;;32.10;77.50;;;;;;5054043;28;20036;-69
2023/07/05 12:50:39;;;;;;;12.90;5.93;;;33.30;75.90;;;;;;5054002;28;20055;-68
2023/07/05 12:53:43;;;;;;;17.70;6.22;;;34.70;72.70;;;;;;5053238;28;20044;-69
2023/07/05 12:56:49;;;;;;;15.00;5.90;;;34.50;71.90;;;;;;5053367;28;20283;-71
2023/07/05 12:59:54;;;;;;;11.10;5.53;;;34.50;72.30;;;;;;5053138;28;20040;-68
2023/07/05 13:03:00;;;;;;;16.50;5.85;;;33.80;72.90;;;;;;5052132;28;20085;-69
2023/07/05 13:06:08;;;;;;;11.48;5.63;;;33.40;73.60;;;;;;5051163;28;20043;-69
2023/07/05 13:09:12;;;;;;;12.20;5.60;;;32.90;74.70;;;;;;5053626;28;20076;-69
2023/07/05 13:12:15;;;;;;;17.63;6.05;;;32.60;75.10;;;;;;5053869;28;20059;-69
2023/07/05 13:15:20;;;;;;;13.30;6.30;;;32.30;76.00;;;;;;5053349;28;20048;-69
2023/07/05 13:18:32;;;;;;;19.80;6.32;;;32.20;76.90;;;;;;5052713;28;20048;-69
2023/07/05 13:21:37;;;;;;;15.30;5.82;;;32.10;76.60;;;;;;5052503;28;20067;-70
2023/07/05 13:24:47;;;;;;;17.73;6.32;;;32.00;76.20;;;;;;5053402;28;20414;-69
2023/07/05 13:27:53;;;;;;;10.13;5.13;;;31.80;76.30;;;;;;5052300;28;20369;-70
2023/07/05 13:31:01;;;;;;;11.02;5.13;;;31.70;76.50;;;;;;5052728;28;20052;-69
2023/07/05 13:34:06;;;;;;;12.35;5.30;;;31.70;77.50;;;;;;5052982;28;20040;-69
2023/07/05 13:37:14;;;;;;;8.68;5.30;;;31.60;77.20;;;;;;5053270;28;20059;-70
2023/07/05 13:40:25;;;;;;;9.45;5.28;;;31.50;77.30;;;;;;5052901;28;20047;-70
2023/07/05 13:43:33;;;;;;;9.02;5.07;;;31.50;77.30;;;;;;5053411;28;20072;-69
2023/07/05 13:46:37;;;;;;;7.97;5.10;;;31.40;77.80;;;;;;5052989;28;20052;-70
2023/07/05 13:49:42;;;;;;;9.18;5.22;;;31.30;78.60;;;;;;5052841;28;20051;-70
2023/07/05 13:52:47;;;;;;;12.65;5.50;;;31.30;78.40;;;;;;5052880;28;20104;-70
2023/07/05 13:55:52;;;;;;;9.05;5.15;;;31.20;78.80;;;;;;5052918;28;20131;-69
2023/07/05 13:58:56;;;;;;;10.00;4.88;;;31.20;79.20;;;;;;5052870;28;20056;-70
2023/07/05 14:02:01;;;;;;;19.83;6.68;;;31.20;79.40;;;;;;5052841;28;20056;-71
2023/07/05 14:05:05;;;;;;;18.48;6.10;;;31.10;79.40;;;;;;5052750;28;20040;-69
2023/07/05 14:08:14;;;;;;;11.75;5.60;;;31.00;79.90;;;;;;5052587;28;20067;-70
2023/07/05 14:11:26;;;;;;;13.87;5.90;;;31.00;80.50;;;;;;5051820;28;20048;-67
2023/07/05 14:14:30;;;;;;;42.08;8.38;;;31.30;80.30;;;;;;5050971;28;20040;-68
2023/07/05 14:17:34;;;;;;;8.85;5.22;;;32.50;78.70;;;;;;5050784;28;20437;-67
2023/07/05 14:20:38;;;;;;;10.98;5.47;;;33.10;75.80;;;;;;5049690;28;20056;-67
2023/07/05 14:23:43;;;;;;;17.08;6.20;;;33.40;75.30;;;;;;5050399;28;20052;-67
2023/07/05 14:26:48;;;;;;;10.80;5.35;;;33.80;74.90;;;;;;5049117;28;20044;-69
2023/07/05 14:29:53;;;;;;;25.67;6.20;;;34.30;74.60;;;;;;5050984;28;20051;-68
2023/07/05 14:32:58;;;;;;;23.27;5.50;;;34.60;73.90;;;;;;5051889;28;20040;-69
2023/07/05 14:36:02;;;;;;;16.20;6.75;;;34.90;73.40;;;;;;5052364;28;20048;-67
2023/07/05 14:39:09;;;;;;;13.20;5.57;;;34.80;73.40;;;;;;5052442;28;20059;-67
2023/07/05 14:42:14;;;;;;;14.00;5.18;;;34.80;73.70;;;;;;5052274;28;20048;-66
2023/07/05 14:45:22;;;;;;;18.35;5.32;;;34.60;73.90;;;;;;5051843;28;20040;-68
2023/07/05 14:48:27;;;;;;;16.48;5.43;;;34.40;74.00;;;;;;5051482;28;20060;-67
2023/07/05 14:51:32;;;;;;;13.70;5.13;;;33.90;74.10;;;;;;5051820;28;20056;-67
2023/07/05 14:54:37;;;;;;;15.65;5.32;;;33.30;75.50;;;;;;5051952;28;20048;-69
2023/07/05 14:57:41;;;;;;;14.75;5.35;;;32.80;76.80;;;;;;5050630;28;20564;-68
2023/07/05 15:00:46;;;;;;;12.15;4.82;;;32.50;77.60;;;;;;5052415;28;20044;-67
2023/07/05 15:03:51;;;;;;;68.68;10.63;;;32.20;77.10;;;;;;5051578;28;20060;-66
2023/07/05 15:06:55;;;;;;;13.70;5.90;;;32.00;78.30;;;;;;5049280;28;20044;-68
2023/07/05 15:09:59;;;;;;;11.43;5.53;;;31.80;79.00;;;;;;5051448;28;20405;-68
2023/07/05 15:13:07;;;;;;;9.18;5.03;;;31.70;79.50;;;;;;5051306;28;20043;-68
2023/07/05 15:16:22;;;;;;;19.23;6.45;;;31.50;79.90;;;;;;5051693;28;20075;-68
2023/07/05 15:19:26;;;;;;;9.82;4.72;;;31.50;79.30;;;;;;5051062;28;20063;-68
2023/07/05 15:22:30;;;;;;;8.30;5.03;;;31.50;79.70;;;;;;5051541;28;20051;-66
2023/07/05 15:25:34;;;;;;;9.98;5.65;;;31.40;79.60;;;;;;5051301;28;20496;-68
2023/07/05 15:28:39;;;;;;;9.70;5.57;;;31.40;79.90;;;;;;5051339;28;20455;-69
2023/07/05 15:31:43;;;;;;;14.18;5.10;;;31.30;79.90;;;;;;5051180;28;20047;-67
2023/07/05 15:34:47;;;;;;;11.95;4.80;;;31.20;79.70;;;;;;5051179;28;20044;-69
2023/07/05 15:37:51;;;;;;;10.77;5.13;;;31.20;79.70;;;;;;5050798;28;20051;-68
2023/07/05 15:41:02;;;;;;;15.93;5.65;;;31.10;79.40;;;;;;5050985;28;20075;-70
2023/07/05 15:44:06;;;;;;;10.65;5.30;;;31.10;79.60;;;;;;5050937;28;20038;-70
2023/07/05 15:47:10;;;;;;;11.32;4.70;;;31.10;79.20;;;;;;5050846;28;20071;-71
2023/07/05 15:50:17;;;;;;;14.38;5.80;;;31.10;79.50;;;;;;5050759;28;20523;-70
2023/07/05 15:53:20;;;;;;;14.35;5.22;;;31.00;80.10;;;;;;5050707;28;20040;-71
2023/07/05 15:56:24;;;;;;;11.45;4.57;;;31.00;80.00;;;;;;5050823;28;20048;-70
2023/07/05 15:59:34;;;;;;;14.70;4.82;;;30.90;79.80;;;;;;5050750;28;20055;-72